DLH15X EDDF-EDDV
Flight info
| Callsign | DLH15X |
|---|---|
| Flight time | 0h 33m |
| Altitude | 28000 |
| Route | MARUN6E MARUN Y153 WRB WRB1X |
| Aircraft | A320/M-SDE3FGHIRWY/LB1 |
Departure
| Time | 2026-04-14 11:21 |
|---|---|
| Airport | Frankfurt Main Airport (EDDF) |
Arrival
| Time | 2026-04-14 11:55 |
|---|---|
| Airport | Hannover Airport (EDDV) |
| Time | Latitude | Longitude | Altitude | Speed | Heading |
|---|---|---|---|---|---|
| 2026-04-14 10:58 | 50.04883 | 8.57153 | 356 ft | 0 kts | 159° |
| 2026-04-14 11:14 | 50.04879 | 8.57149 | 356 ft | 1 kts | 203° |
| 2026-04-14 11:14 | 50.04870 | 8.57122 | 359 ft | 3 kts | 246° |
| 2026-04-14 11:14 | 50.04863 | 8.57094 | 359 ft | 2 kts | 243° |
| 2026-04-14 11:15 | 50.04850 | 8.57075 | 358 ft | 4 kts | 217° |
| 2026-04-14 11:15 | 50.04820 | 8.57053 | 360 ft | 5 kts | 204° |
| 2026-04-14 11:15 | 50.04791 | 8.57032 | 357 ft | 5 kts | 204° |
| 2026-04-14 11:15 | 50.04747 | 8.57001 | 357 ft | 7 kts | 204° |
| 2026-04-14 11:16 | 50.04704 | 8.56970 | 357 ft | 6 kts | 204° |
| 2026-04-14 11:16 | 50.04663 | 8.56941 | 359 ft | 8 kts | 204° |
| 2026-04-14 11:16 | 50.04591 | 8.56905 | 360 ft | 11 kts | 193° |
| 2026-04-14 11:16 | 50.04535 | 8.56885 | 359 ft | 7 kts | 193° |
| 2026-04-14 11:17 | 50.04482 | 8.56863 | 359 ft | 11 kts | 201° |
| 2026-04-14 11:17 | 50.04431 | 8.56742 | 359 ft | 16 kts | 250° |
| 2026-04-14 11:17 | 50.04386 | 8.56552 | 358 ft | 20 kts | 250° |
| 2026-04-14 11:17 | 50.04336 | 8.56343 | 357 ft | 22 kts | 250° |
| 2026-04-14 11:18 | 50.04281 | 8.56111 | 362 ft | 24 kts | 249° |
| 2026-04-14 11:18 | 50.04239 | 8.55939 | 360 ft | 14 kts | 249° |
| 2026-04-14 11:18 | 50.04206 | 8.55802 | 361 ft | 13 kts | 250° |
| 2026-04-14 11:18 | 50.04170 | 8.55649 | 352 ft | 16 kts | 250° |
| 2026-04-14 11:19 | 50.04132 | 8.55488 | 356 ft | 15 kts | 250° |
| 2026-04-14 11:19 | 50.04079 | 8.55409 | 352 ft | 11 kts | 184° |
| 2026-04-14 11:19 | 50.04008 | 8.55445 | 357 ft | 11 kts | 158° |
| 2026-04-14 11:19 | 50.03934 | 8.55473 | 353 ft | 12 kts | 171° |
| 2026-04-14 11:20 | 50.03846 | 8.55513 | 350 ft | 10 kts | 159° |
| 2026-04-14 11:20 | 50.03782 | 8.55551 | 353 ft | 7 kts | 159° |
| 2026-04-14 11:20 | 50.03771 | 8.55589 | 354 ft | 3 kts | 79° |
| 2026-04-14 11:20 | 50.03776 | 8.55613 | 351 ft | 2 kts | 71° |
| 2026-04-14 11:21 | 50.03800 | 8.55716 | 355 ft | 37 kts | 70° |
| 2026-04-14 11:21 | 50.03987 | 8.56494 | 359 ft | 112 kts | 70° |
| 2026-04-14 11:21 | 50.04347 | 8.57878 | 493 ft | 155 kts | 65° |
| 2026-04-14 11:21 | 50.04733 | 8.59439 | 1308 ft | 153 kts | 67° |
| 2026-04-14 11:22 | 50.05096 | 8.61057 | 1973 ft | 168 kts | 69° |
| 2026-04-14 11:22 | 50.05652 | 8.62743 | 2465 ft | 185 kts | 44° |
| 2026-04-14 11:22 | 50.06834 | 8.63661 | 2915 ft | 201 kts | 6° |
| 2026-04-14 11:22 | 50.08256 | 8.63574 | 3611 ft | 208 kts | 357° |
| 2026-04-14 11:23 | 50.09688 | 8.63466 | 4536 ft | 208 kts | 358° |
| 2026-04-14 11:23 | 50.11175 | 8.63362 | 5331 ft | 220 kts | 358° |
| 2026-04-14 11:23 | 50.12752 | 8.63246 | 5865 ft | 241 kts | 357° |
| 2026-04-14 11:23 | 50.14492 | 8.63119 | 6562 ft | 257 kts | 357° |
| 2026-04-14 11:24 | 50.16305 | 8.62991 | 7439 ft | 264 kts | 356° |
| 2026-04-14 11:24 | 50.18186 | 8.62859 | 8368 ft | 271 kts | 356° |
| 2026-04-14 11:24 | 50.20069 | 8.62730 | 9274 ft | 278 kts | 356° |
| 2026-04-14 11:24 | 50.22033 | 8.62598 | 10114 ft | 287 kts | 355° |
| 2026-04-14 11:25 | 50.24090 | 8.62459 | 10641 ft | 307 kts | 356° |
| 2026-04-14 11:25 | 50.26298 | 8.62307 | 11032 ft | 329 kts | 355° |
| 2026-04-14 11:25 | 50.28624 | 8.62149 | 11721 ft | 338 kts | 355° |
| 2026-04-14 11:25 | 50.30992 | 8.61991 | 12548 ft | 344 kts | 356° |
| 2026-04-14 11:26 | 50.33397 | 8.61842 | 13393 ft | 349 kts | 356° |
| 2026-04-14 11:26 | 50.35850 | 8.61778 | 14172 ft | 355 kts | 357° |
| 2026-04-14 11:26 | 50.38327 | 8.61782 | 14880 ft | 359 kts | 358° |
| 2026-04-14 11:26 | 50.40848 | 8.61813 | 15620 ft | 363 kts | 359° |
| 2026-04-14 11:27 | 50.43389 | 8.61847 | 16351 ft | 367 kts | 359° |
| 2026-04-14 11:27 | 50.45955 | 8.62072 | 17086 ft | 372 kts | 4° |
| 2026-04-14 11:27 | 50.48537 | 8.62453 | 17826 ft | 375 kts | 4° |
| 2026-04-14 11:27 | 50.51157 | 8.62828 | 18543 ft | 379 kts | 4° |
| 2026-04-14 11:28 | 50.53794 | 8.63195 | 19165 ft | 383 kts | 4° |
| 2026-04-14 11:28 | 50.56461 | 8.63563 | 19785 ft | 386 kts | 3° |
| 2026-04-14 11:28 | 50.59147 | 8.63939 | 20403 ft | 390 kts | 3° |
| 2026-04-14 11:28 | 50.61859 | 8.64323 | 21007 ft | 394 kts | 3° |
| 2026-04-14 11:29 | 50.64601 | 8.64708 | 21590 ft | 397 kts | 3° |
| 2026-04-14 11:29 | 50.67371 | 8.65098 | 22168 ft | 401 kts | 3° |
| 2026-04-14 11:29 | 50.69215 | 8.65360 | 22541 ft | 404 kts | 3° |
| 2026-04-14 11:29 | 50.72028 | 8.65754 | 23098 ft | 407 kts | 3° |
| 2026-04-14 11:30 | 50.74864 | 8.66152 | 23642 ft | 411 kts | 3° |
| 2026-04-14 11:30 | 50.77726 | 8.66555 | 24109 ft | 415 kts | 3° |
| 2026-04-14 11:30 | 50.80610 | 8.67017 | 24581 ft | 418 kts | 7° |
| 2026-04-14 11:30 | 50.84357 | 8.68572 | 25199 ft | 424 kts | 20° |
| 2026-04-14 11:31 | 50.86211 | 8.69744 | 25519 ft | 425 kts | 20° |
| 2026-04-14 11:31 | 50.88961 | 8.71499 | 25995 ft | 427 kts | 20° |
| 2026-04-14 11:31 | 50.91724 | 8.73258 | 26458 ft | 430 kts | 20° |
| 2026-04-14 11:31 | 50.94508 | 8.75030 | 26919 ft | 432 kts | 20° |
| 2026-04-14 11:32 | 50.97303 | 8.76806 | 27384 ft | 434 kts | 20° |
| 2026-04-14 11:32 | 51.00114 | 8.78592 | 27832 ft | 436 kts | 20° |
| 2026-04-14 11:32 | 51.02936 | 8.80380 | 28130 ft | 438 kts | 20° |
| 2026-04-14 11:32 | 51.05737 | 8.82163 | 28181 ft | 426 kts | 20° |
| 2026-04-14 11:33 | 51.11140 | 8.85620 | 28185 ft | 416 kts | 20° |
| 2026-04-14 11:34 | 51.19134 | 8.90750 | 28187 ft | 414 kts | 20° |
| 2026-04-14 11:34 | 51.24481 | 8.94176 | 28192 ft | 415 kts | 20° |
| 2026-04-14 11:35 | 51.29843 | 8.97626 | 28183 ft | 415 kts | 20° |
| 2026-04-14 11:35 | 51.35193 | 9.01086 | 28181 ft | 415 kts | 20° |
| 2026-04-14 11:36 | 51.40535 | 9.04558 | 28173 ft | 414 kts | 20° |
| 2026-04-14 11:36 | 51.45876 | 9.08022 | 28178 ft | 414 kts | 20° |
| 2026-04-14 11:37 | 51.51160 | 9.11681 | 27921 ft | 413 kts | 28° |
| 2026-04-14 11:37 | 51.53590 | 9.14111 | 27337 ft | 410 kts | 31° |
| 2026-04-14 11:37 | 51.55988 | 9.16574 | 26759 ft | 407 kts | 31° |
| 2026-04-14 11:37 | 51.58368 | 9.19020 | 26205 ft | 405 kts | 31° |
| 2026-04-14 11:38 | 51.60729 | 9.21444 | 25674 ft | 402 kts | 31° |
| 2026-04-14 11:38 | 51.63081 | 9.23850 | 25141 ft | 399 kts | 31° |
| 2026-04-14 11:38 | 51.65421 | 9.26238 | 24625 ft | 396 kts | 31° |
| 2026-04-14 11:38 | 51.67743 | 9.28609 | 24110 ft | 394 kts | 31° |
| 2026-04-14 11:39 | 51.70049 | 9.30972 | 23590 ft | 392 kts | 31° |
| 2026-04-14 11:39 | 51.72342 | 9.33331 | 23040 ft | 390 kts | 31° |
| 2026-04-14 11:39 | 51.74622 | 9.35676 | 22525 ft | 386 kts | 31° |
| 2026-04-14 11:39 | 51.76873 | 9.38002 | 22040 ft | 383 kts | 31° |
| 2026-04-14 11:40 | 51.79105 | 9.40312 | 21570 ft | 379 kts | 31° |
| 2026-04-14 11:40 | 51.81311 | 9.42597 | 21126 ft | 376 kts | 31° |
| 2026-04-14 11:40 | 51.83504 | 9.44869 | 20676 ft | 372 kts | 31° |
| 2026-04-14 11:40 | 51.85674 | 9.47115 | 20235 ft | 369 kts | 31° |
| 2026-04-14 11:41 | 51.87835 | 9.49349 | 19801 ft | 366 kts | 31° |
| 2026-04-14 11:41 | 51.89971 | 9.51565 | 19378 ft | 364 kts | 31° |
| 2026-04-14 11:41 | 51.92090 | 9.53768 | 18956 ft | 361 kts | 30° |
| 2026-04-14 11:41 | 51.94198 | 9.55966 | 18537 ft | 359 kts | 31° |
| 2026-04-14 11:42 | 51.96288 | 9.58146 | 18066 ft | 356 kts | 30° |
| 2026-04-14 11:42 | 51.98340 | 9.60287 | 17611 ft | 354 kts | 30° |
| 2026-04-14 11:42 | 52.00401 | 9.62444 | 17169 ft | 351 kts | 31° |
| 2026-04-14 11:42 | 52.02467 | 9.64608 | 16739 ft | 348 kts | 31° |
| 2026-04-14 11:43 | 52.04472 | 9.66711 | 16308 ft | 346 kts | 31° |
| 2026-04-14 11:43 | 52.06487 | 9.68826 | 15892 ft | 344 kts | 30° |
| 2026-04-14 11:43 | 52.08489 | 9.70932 | 15485 ft | 342 kts | 30° |
| 2026-04-14 11:43 | 52.10475 | 9.73026 | 15046 ft | 337 kts | 31° |
| 2026-04-14 11:44 | 52.12429 | 9.75089 | 14326 ft | 333 kts | 30° |
| 2026-04-14 11:44 | 52.14369 | 9.77138 | 13542 ft | 331 kts | 30° |
| 2026-04-14 11:44 | 52.16289 | 9.79162 | 12749 ft | 327 kts | 31° |
| 2026-04-14 11:44 | 52.18195 | 9.81164 | 11962 ft | 324 kts | 30° |
| 2026-04-14 11:45 | 52.20077 | 9.83140 | 11329 ft | 318 kts | 30° |
| 2026-04-14 11:45 | 52.21905 | 9.85063 | 11192 ft | 307 kts | 30° |
| 2026-04-14 11:45 | 52.23661 | 9.86988 | 10935 ft | 303 kts | 35° |
| 2026-04-14 11:45 | 52.25201 | 9.89323 | 10595 ft | 303 kts | 47° |
| 2026-04-14 11:46 | 52.26452 | 9.92072 | 10237 ft | 301 kts | 58° |
| 2026-04-14 11:46 | 52.27526 | 9.94982 | 9534 ft | 299 kts | 58° |
| 2026-04-14 11:46 | 52.28592 | 9.97872 | 8881 ft | 295 kts | 58° |
| 2026-04-14 11:46 | 52.29642 | 10.00721 | 8239 ft | 290 kts | 57° |
| 2026-04-14 11:47 | 52.30672 | 10.03513 | 7606 ft | 285 kts | 57° |
| 2026-04-14 11:47 | 52.31690 | 10.06268 | 7023 ft | 279 kts | 56° |
| 2026-04-14 11:47 | 52.32646 | 10.08867 | 6872 ft | 255 kts | 55° |
| 2026-04-14 11:47 | 52.33571 | 10.11243 | 6525 ft | 242 kts | 45° |
| 2026-04-14 11:48 | 52.34835 | 10.12913 | 6074 ft | 227 kts | 21° |
| 2026-04-14 11:48 | 52.36293 | 10.13568 | 5720 ft | 212 kts | 359° |
| 2026-04-14 11:48 | 52.37720 | 10.13277 | 5294 ft | 206 kts | 339° |
| 2026-04-14 11:48 | 52.38960 | 10.12163 | 4857 ft | 203 kts | 323° |
| 2026-04-14 11:49 | 52.40097 | 10.10799 | 4387 ft | 202 kts | 323° |
| 2026-04-14 11:49 | 52.41232 | 10.09451 | 3951 ft | 201 kts | 323° |
| 2026-04-14 11:49 | 52.42357 | 10.08115 | 3545 ft | 200 kts | 323° |
| 2026-04-14 11:49 | 52.43448 | 10.06723 | 3164 ft | 200 kts | 314° |
| 2026-04-14 11:50 | 52.44203 | 10.04835 | 2992 ft | 198 kts | 293° |
| 2026-04-14 11:50 | 52.44472 | 10.02651 | 2980 ft | 196 kts | 276° |
| 2026-04-14 11:50 | 52.44538 | 10.00440 | 2981 ft | 193 kts | 275° |
| 2026-04-14 11:51 | 52.44663 | 9.96200 | 2962 ft | 177 kts | 276° |
| 2026-04-14 11:51 | 52.44726 | 9.94249 | 2952 ft | 166 kts | 276° |
| 2026-04-14 11:51 | 52.44782 | 9.92392 | 2801 ft | 162 kts | 276° |
| 2026-04-14 11:51 | 52.44841 | 9.90554 | 2590 ft | 163 kts | 276° |
| 2026-04-14 11:52 | 52.44898 | 9.88696 | 2387 ft | 164 kts | 275° |
| 2026-04-14 11:52 | 52.44955 | 9.86814 | 2159 ft | 166 kts | 275° |
| 2026-04-14 11:52 | 52.45014 | 9.84917 | 1890 ft | 166 kts | 275° |
| 2026-04-14 11:52 | 52.45060 | 9.83080 | 1650 ft | 159 kts | 276° |
| 2026-04-14 11:53 | 52.45109 | 9.81357 | 1488 ft | 138 kts | 276° |
| 2026-04-14 11:53 | 52.45152 | 9.79867 | 1307 ft | 126 kts | 277° |
| 2026-04-14 11:53 | 52.45195 | 9.78456 | 1164 ft | 125 kts | 277° |
| 2026-04-14 11:53 | 52.45238 | 9.77048 | 947 ft | 125 kts | 277° |
| 2026-04-14 11:54 | 52.45278 | 9.75641 | 758 ft | 123 kts | 277° |
| 2026-04-14 11:54 | 52.45312 | 9.74255 | 608 ft | 122 kts | 277° |
| 2026-04-14 11:54 | 52.45356 | 9.72852 | 459 ft | 124 kts | 276° |
| 2026-04-14 11:54 | 52.45392 | 9.71436 | 273 ft | 125 kts | 277° |
| 2026-04-14 11:55 | 52.45430 | 9.70083 | 181 ft | 105 kts | 272° |
| 2026-04-14 11:55 | 52.45456 | 9.69166 | 198 ft | 56 kts | 272° |
| 2026-04-14 11:55 | 52.45471 | 9.68669 | 182 ft | 40 kts | 273° |
| 2026-04-14 11:55 | 52.45480 | 9.68330 | 181 ft | 11 kts | 272° |
| 2026-04-14 11:56 | 52.45535 | 9.68254 | 181 ft | 13 kts | 355° |
| 2026-04-14 11:56 | 52.45624 | 9.68270 | 179 ft | 14 kts | 26° |
| 2026-04-14 11:56 | 52.45642 | 9.68417 | 179 ft | 13 kts | 92° |
| 2026-04-14 11:56 | 52.45638 | 9.68564 | 179 ft | 12 kts | 94° |
| 2026-04-14 11:57 | 52.45633 | 9.68701 | 179 ft | 12 kts | 92° |
| 2026-04-14 11:57 | 52.45630 | 9.68831 | 179 ft | 11 kts | 92° |
| 2026-04-14 11:57 | 52.45627 | 9.68953 | 179 ft | 10 kts | 92° |
| 2026-04-14 11:57 | 52.45623 | 9.69069 | 179 ft | 10 kts | 91° |
| 2026-04-14 11:58 | 52.45660 | 9.69145 | 179 ft | 9 kts | 15° |
| 2026-04-14 11:58 | 52.45725 | 9.69153 | 179 ft | 11 kts | 13° |
| 2026-04-14 11:58 | 52.45777 | 9.69197 | 179 ft | 6 kts | 19° |
| 2026-04-14 11:58 | 52.45819 | 9.69187 | 179 ft | 8 kts | 335° |
| 2026-04-14 11:59 | 52.45877 | 9.69141 | 179 ft | 11 kts | 354° |
| 2026-04-14 11:59 | 52.45913 | 9.69162 | 179 ft | 4 kts | 34° |
| 2026-04-14 11:59 | 52.45921 | 9.69213 | 179 ft | 5 kts | 99° |
| 2026-04-14 11:59 | 52.45918 | 9.69269 | 179 ft | 5 kts | 94° |
| 2026-04-14 12:00 | 52.45917 | 9.69292 | 179 ft | 2 kts | 94° |
| 2026-04-14 12:00 | 52.45917 | 9.69293 | 179 ft | 0 kts | 94° |